Alma, New York
Current Conditions -  °F | °C
As of 5:56 PM on Saturday 25 Oct 2014 (Local Time) from KELZ Reporting Station
Overcast Overcast  
Wind Chill: 59°   Ceiling: 5000
Heat Index: 59°   Visibility: 10mi
Dew Point: 46°   Wind: 14mph
Humidity: 62%   Direction: 290°WNW
Pressure: 29.66"   Gusts: 23mph
Location:  42.01°N, 78.06°W
Report Text: KELZ 252156Z AUTO 29012G20KT 10SM FEW036 BKN050 OVC065 15/08 A2966 RMK AO2 SLP043 T01500078
Loading
Personal Weather Stations






























Interactive Weather Map
Tropical Storm Tracking
New forecast layout! Learn more

10-Day Weather Forecast

Advertisements
Track Severe Weather on mobile